KR-0399 weather

Busan Hotel Heliport
Busan, Busan Gwang'yeogsi, South Korea

Public forecast

Using degrees Celsius for public forecast. Weather courtesy of forecast.io.

Closest aviation weather report (METAR) to Busan Hotel Heliport

Closest report is Gimhae International Airport, 6.7 nm (12.4 km) NW. Retrieved 2020/07/05 10:00 UTC (49 minutes ago):

RKPK 051000Z 20006KT CAVOK 24/17 Q1003 RMK CIG200 SLP031 8/018 9/032

Closest aviation forecast (TAF) to Busan Hotel Heliport

Closest forecast is Gimhae International Airport, 6.7 nm (12.4 km) NW. Retrieved 2020/07/05 06:00 UTC (5 hours ago):

TAF RKPK 050500Z 0506/0612 18006KT 9999 SCT030 BKN200 TN21/0520Z TX27/0605Z BECMG 0509/0510 06006KT